createdAt,value
2022-11-29T00:01:36.477Z,11.95
2022-11-29T00:04:04.967Z,12.82
2022-11-29T00:06:34.909Z,8.63
2022-11-29T00:09:07.797Z,9.70
2022-11-29T00:11:54.636Z,10.25
2022-11-29T00:14:23.771Z,16.95
2022-11-29T00:16:54.024Z,14.48
2022-11-29T00:19:22.725Z,16.45
2022-11-29T00:21:51.053Z,15.52
2022-11-29T00:24:19.284Z,11.82
2022-11-29T00:26:47.526Z,10.40
2022-11-29T00:29:16.052Z,15.90
2022-11-29T00:31:44.711Z,11.60
2022-11-29T00:34:14.448Z,15.07
2022-11-29T00:36:42.879Z,11.82
2022-11-29T00:39:12.648Z,9.05
2022-11-29T00:41:40.910Z,14.82
2022-11-29T00:44:09.177Z,11.95
2022-11-29T00:46:37.566Z,12.77
2022-11-29T00:49:06.540Z,13.95
2022-11-29T00:51:36.260Z,10.25
2022-11-29T00:54:04.637Z,14.95
2022-11-29T00:56:32.909Z,15.02
2022-11-29T00:59:01.155Z,7.80
2022-11-29T01:01:29.455Z,11.38
2022-11-29T01:03:57.821Z,13.23
2022-11-29T01:06:26.103Z,15.57
2022-11-29T01:08:55.872Z,14.93
2022-11-29T01:11:26.184Z,12.13
2022-11-29T01:13:57.022Z,15.18
2022-11-29T01:16:25.656Z,16.85
2022-11-29T01:18:53.979Z,17.52
2022-11-29T01:21:23.756Z,16.55
2022-11-29T01:23:52.968Z,13.75
2022-11-29T01:26:24.525Z,15.10
2022-11-29T01:28:54.236Z,12.73
2022-11-29T01:31:24.877Z,12.98
2022-11-29T01:33:55.047Z,11.63
2022-11-29T01:36:23.325Z,10.15
2022-11-29T01:38:51.706Z,14.20
2022-11-29T01:41:23.922Z,14.93
2022-11-29T01:44:01.651Z,13.02
2022-11-29T01:46:31.121Z,13.45
2022-11-29T01:49:01.597Z,17.70
2022-11-29T01:51:30.444Z,11.98
2022-11-29T01:53:58.826Z,12.55
2022-11-29T01:56:29.737Z,14.77
2022-11-29T01:58:57.987Z,13.13
2022-11-29T02:01:26.861Z,13.38
2022-11-29T02:03:55.299Z,13.35
2022-11-29T02:06:23.774Z,11.25
2022-11-29T02:08:51.972Z,7.68
2022-11-29T02:11:53.703Z,14.43
2022-11-29T02:14:36.600Z,8.73
2022-11-29T02:17:11.310Z,8.50
2022-11-29T02:20:17.908Z,17.92
2022-11-29T02:22:50.586Z,11.23
2022-11-29T02:25:29.097Z,11.35
2022-11-29T02:28:31.632Z,7.85
2022-11-29T02:31:30.673Z,11.80
2022-11-29T02:34:17.322Z,17.98
2022-11-29T02:37:15.569Z,10.88
2022-11-29T02:39:59.511Z,8.45
2022-11-29T02:42:56.018Z,5.75
2022-11-29T02:45:51.629Z,13.88
2022-11-29T02:48:31.155Z,12.98
2022-11-29T02:51:06.392Z,10.18
2022-11-29T02:53:39.648Z,9.95
2022-11-29T02:58:45.281Z,8.70
2022-11-29T03:01:19.925Z,7.75
2022-11-29T03:03:53.912Z,13.05
2022-11-29T03:06:30.889Z,13.00
2022-11-29T03:09:04.071Z,13.82
2022-11-29T03:11:38.620Z,13.85
2022-11-29T03:14:15.654Z,11.05
2022-11-29T03:16:48.562Z,11.52
2022-11-29T03:19:38.242Z,12.85
2022-11-29T03:22:13.117Z,11.82
2022-11-29T03:24:45.358Z,10.32
2022-11-29T03:27:15.484Z,10.10
2022-11-29T03:29:48.162Z,13.05
2022-11-29T03:32:20.254Z,10.88
2022-11-29T03:34:57.511Z,12.10
2022-11-29T03:37:31.567Z,8.40
2022-11-29T03:40:05.677Z,5.25
2022-11-29T03:42:37.358Z,12.15
2022-11-29T03:45:09.168Z,4.57
2022-11-29T03:47:41.924Z,7.70
2022-11-29T03:50:15.407Z,11.35
2022-11-29T03:52:50.439Z,11.07
2022-11-29T03:55:33.220Z,16.90
2022-11-29T03:58:19.128Z,11.85
2022-11-29T04:01:02.854Z,7.93
2022-11-29T04:03:43.733Z,12.23
2022-11-29T04:06:25.742Z,8.85
2022-11-29T04:09:11.744Z,11.85
2022-11-29T04:12:00.967Z,11.88
2022-11-29T04:15:04.776Z,8.18
2022-11-29T04:17:57.583Z,13.07
2022-11-29T04:20:48.683Z,8.77
2022-11-29T04:23:48.290Z,8.57
2022-11-29T04:26:45.068Z,9.60
2022-11-29T04:29:20.400Z,12.10
2022-11-29T04:32:12.660Z,14.20
2022-11-29T04:35:00.585Z,9.43
2022-11-29T04:37:46.334Z,16.73
2022-11-29T04:40:28.037Z,7.45
2022-11-29T04:43:07.327Z,14.75
2022-11-29T04:46:12.395Z,11.48
2022-11-29T04:48:52.923Z,15.25
2022-11-29T04:51:32.145Z,12.90
2022-11-29T04:54:07.813Z,14.25
2022-11-29T04:56:41.515Z,18.23
2022-11-29T04:59:14.956Z,17.70
2022-11-29T05:01:51.664Z,12.80
2022-11-29T05:04:23.018Z,20.02
2022-11-29T05:07:00.652Z,9.38
2022-11-29T05:09:38.271Z,13.75
2022-11-29T05:12:11.655Z,11.63
2022-11-29T05:17:27.291Z,10.38
2022-11-29T05:20:14.053Z,10.35
2022-11-29T05:22:50.466Z,7.57
2022-11-29T05:25:39.794Z,4.88
2022-11-29T05:28:11.984Z,7.20
2022-11-29T05:31:13.090Z,13.90
2022-11-29T05:33:59.049Z,16.65
2022-11-29T05:36:36.792Z,13.98
2022-11-29T05:39:17.781Z,15.85
2022-11-29T05:41:59.204Z,12.80
2022-11-29T05:44:34.981Z,10.60
2022-11-29T05:47:05.937Z,12.70
2022-11-29T05:49:41.613Z,9.45
2022-11-29T05:52:25.579Z,9.60
2022-11-29T05:55:15.739Z,15.63
2022-11-29T05:57:48.443Z,14.23
2022-11-29T06:00:18.092Z,8.05
2022-11-29T06:02:55.581Z,18.17
2022-11-29T06:05:28.695Z,19.85
2022-11-29T06:08:01.326Z,9.73
2022-11-29T06:10:32.975Z,13.93
2022-11-29T06:13:08.981Z,13.45
2022-11-29T06:16:14.654Z,21.58
2022-11-29T06:19:16.526Z,22.02
2022-11-29T06:21:50.046Z,9.63
2022-11-29T06:24:31.313Z,15.10
2022-11-29T06:27:15.535Z,11.40
2022-11-29T06:29:46.683Z,18.45
2022-11-29T06:32:22.503Z,19.48
2022-11-29T06:34:55.965Z,22.17
2022-11-29T06:37:29.169Z,15.98
2022-11-29T06:39:57.857Z,17.27
2022-11-29T06:42:26.024Z,14.40
2022-11-29T06:44:54.895Z,19.23
2022-11-29T06:47:28.356Z,17.38
2022-11-29T06:50:00.528Z,16.65
2022-11-29T06:52:39.210Z,16.98
2022-11-29T06:55:13.799Z,17.90
2022-11-29T06:57:56.370Z,19.60
2022-11-29T07:00:27.180Z,15.25
2022-11-29T07:03:21.129Z,20.13
2022-11-29T07:05:50.047Z,13.80
2022-11-29T07:08:21.654Z,11.52
2022-11-29T07:10:53.231Z,14.80
2022-11-29T07:13:22.273Z,17.58
2022-11-29T07:15:56.999Z,11.68
2022-11-29T07:18:32.220Z,21.08
2022-11-29T07:21:08.544Z,26.33
2022-11-29T07:23:41.899Z,19.98
2022-11-29T07:28:51.261Z,29.15
2022-11-29T07:31:30.325Z,38.90
2022-11-29T07:34:05.751Z,24.63
2022-11-29T07:36:41.854Z,34.28
2022-11-29T07:39:19.679Z,24.88
2022-11-29T07:41:53.668Z,13.05
2022-11-29T07:44:28.062Z,22.75
2022-11-29T07:46:56.288Z,35.47
2022-11-29T07:49:24.680Z,22.92
2022-11-29T07:51:55.752Z,23.88
2022-11-29T07:54:25.875Z,35.90
2022-11-29T07:56:54.337Z,27.30
2022-11-29T07:59:22.660Z,24.15
2022-11-29T08:01:50.948Z,28.27
2022-11-29T08:04:19.145Z,28.88
2022-11-29T08:06:47.415Z,22.55
2022-11-29T08:09:15.617Z,31.02
2022-11-29T08:11:45.603Z,16.15
2022-11-29T08:14:13.902Z,22.85
2022-11-29T08:16:42.150Z,32.90
2022-11-29T08:19:10.411Z,21.85
2022-11-29T08:21:38.705Z,24.20
2022-11-29T08:24:07.333Z,11.32
2022-11-29T08:26:35.643Z,28.10
2022-11-29T08:29:05.616Z,25.05
2022-11-29T08:31:33.870Z,30.25
2022-11-29T08:34:02.100Z,32.10
2022-11-29T08:36:30.396Z,25.45
2022-11-29T08:39:04.724Z,12.07
2022-11-29T08:41:35.971Z,30.08
2022-11-29T08:44:05.864Z,26.60
2022-11-29T08:46:47.880Z,24.73
2022-11-29T08:49:16.081Z,34.40
2022-11-29T08:51:44.401Z,27.33
2022-11-29T08:54:11.749Z,24.88
2022-11-29T08:59:29.986Z,27.83
2022-11-29T09:01:58.264Z,17.38
2022-11-29T09:04:26.557Z,33.42
2022-11-29T09:06:56.499Z,39.00
2022-11-29T09:09:24.729Z,34.80
2022-11-29T09:11:53.005Z,30.80
2022-11-29T09:14:23.016Z,29.75
2022-11-29T09:16:52.633Z,36.00
2022-11-29T09:19:20.909Z,29.15
2022-11-29T09:21:49.175Z,30.05
2022-11-29T09:24:17.409Z,22.35
2022-11-29T09:26:48.569Z,27.42
2022-11-29T09:29:18.001Z,41.45
2022-11-29T09:31:46.488Z,38.38
2022-11-29T09:34:17.129Z,39.63
2022-11-29T09:36:45.423Z,38.08
2022-11-29T09:39:13.665Z,36.47
2022-11-29T09:41:51.830Z,36.88
2022-11-29T09:44:26.196Z,38.58
2022-11-29T09:47:00.788Z,32.50
2022-11-29T09:49:44.852Z,34.47
2022-11-29T09:52:19.718Z,35.80
2022-11-29T09:54:56.037Z,34.53
2022-11-29T09:57:27.225Z,36.17
2022-11-29T09:59:59.064Z,36.88
2022-11-29T10:02:33.131Z,26.75
2022-11-29T10:05:07.918Z,27.90
2022-11-29T10:07:39.751Z,34.58
2022-11-29T10:10:14.018Z,31.20
2022-11-29T10:12:47.105Z,24.15
2022-11-29T10:15:19.743Z,33.60
2022-11-29T10:17:52.114Z,34.03
2022-11-29T10:20:24.096Z,37.60
2022-11-29T10:22:55.554Z,29.42
2022-11-29T10:25:26.584Z,20.98
2022-11-29T10:27:56.941Z,29.05
2022-11-29T10:30:25.080Z,26.05
2022-11-29T10:32:57.796Z,35.13
2022-11-29T10:35:29.616Z,32.60
2022-11-29T10:38:30.836Z,28.52
2022-11-29T10:40:50.814Z,29.65
2022-11-29T10:43:19.101Z,29.10
2022-11-29T10:45:50.996Z,32.10
2022-11-29T10:48:21.130Z,37.42
2022-11-29T10:50:52.081Z,25.88
2022-11-29T10:53:22.201Z,31.85
2022-11-29T10:55:53.383Z,31.10
2022-11-29T10:58:28.296Z,32.13
2022-11-29T11:00:58.696Z,27.63
2022-11-29T11:03:32.867Z,33.00
2022-11-29T11:06:05.917Z,27.15
2022-11-29T11:08:34.989Z,31.85
2022-11-29T11:11:05.332Z,30.92
2022-11-29T11:13:34.181Z,32.30
2022-11-29T11:16:11.669Z,32.53
2022-11-29T11:18:40.004Z,32.67
2022-11-29T11:21:12.418Z,35.08
2022-11-29T11:23:53.080Z,36.50
2022-11-29T11:26:21.708Z,35.03
2022-11-29T11:28:52.872Z,28.35
2022-11-29T11:31:29.035Z,30.30
2022-11-29T11:33:57.532Z,46.13
2022-11-29T11:36:28.484Z,33.13
2022-11-29T11:38:58.556Z,36.22
2022-11-29T11:41:49.785Z,41.65
2022-11-29T11:47:18.991Z,24.90
2022-11-29T11:49:52.143Z,32.22
2022-11-29T11:52:23.621Z,38.35
2022-11-29T11:54:55.719Z,30.88
2022-11-29T11:57:24.627Z,40.67
2022-11-29T11:59:54.749Z,47.45
2022-11-29T12:02:28.742Z,28.60
2022-11-29T12:05:00.093Z,36.25
2022-11-29T12:08:06.067Z,33.88
2022-11-29T12:10:25.746Z,23.35
2022-11-29T12:12:55.329Z,24.83
2022-11-29T12:15:25.509Z,35.97
2022-11-29T12:17:57.591Z,23.30
2022-11-29T12:20:28.371Z,30.33
2022-11-29T12:23:19.837Z,33.05
2022-11-29T12:25:51.005Z,31.67
2022-11-29T12:28:21.396Z,27.90
2022-11-29T12:30:56.978Z,23.90
2022-11-29T12:33:32.674Z,29.13
2022-11-29T12:36:24.433Z,31.77
2022-11-29T12:39:05.598Z,33.05
2022-11-29T12:41:41.554Z,28.13
2022-11-29T12:44:19.364Z,31.40
2022-11-29T12:46:57.952Z,31.20
2022-11-29T12:49:46.762Z,33.42
2022-11-29T12:52:19.662Z,76.45
2022-11-29T12:54:58.805Z,22.65
2022-11-29T12:57:35.407Z,29.48
2022-11-29T13:00:10.472Z,27.77
2022-11-29T13:02:58.114Z,42.17
2022-11-29T13:05:35.965Z,25.25
2022-11-29T13:08:18.587Z,31.35
2022-11-29T13:11:03.779Z,23.17
2022-11-29T13:13:39.079Z,24.67
2022-11-29T13:16:18.949Z,38.15
2022-11-29T13:18:52.883Z,29.30
2022-11-29T13:21:24.444Z,25.40
2022-11-29T13:24:08.507Z,28.83
2022-11-29T13:26:40.221Z,30.67
2022-11-29T13:29:09.101Z,24.65
2022-11-29T13:31:39.097Z,31.08
2022-11-29T13:34:10.272Z,22.67
2022-11-29T13:36:49.698Z,23.98
2022-11-29T13:39:30.718Z,22.02
2022-11-29T13:42:06.706Z,27.92
2022-11-29T13:44:38.598Z,28.92
2022-11-29T13:47:08.492Z,28.05
2022-11-29T13:49:55.261Z,26.55
2022-11-29T13:52:30.296Z,23.25
2022-11-29T13:55:18.597Z,33.63
2022-11-29T13:58:15.312Z,26.52
2022-11-29T14:00:50.866Z,22.70
2022-11-29T14:03:40.106Z,24.85
2022-11-29T14:06:14.715Z,28.40
2022-11-29T14:11:45.217Z,32.63
2022-11-29T14:14:23.753Z,34.20
2022-11-29T14:16:54.220Z,27.88
2022-11-29T14:19:28.866Z,21.83
2022-11-29T14:22:22.214Z,28.67
2022-11-29T14:25:16.522Z,27.58
2022-11-29T14:28:05.350Z,25.50
2022-11-29T14:31:01.738Z,21.75
2022-11-29T14:33:37.539Z,42.63
2022-11-29T14:36:25.511Z,27.45
2022-11-29T14:39:00.483Z,26.75
2022-11-29T14:41:34.697Z,32.90
2022-11-29T14:44:19.280Z,33.28
2022-11-29T14:46:49.698Z,25.92
2022-11-29T14:49:23.796Z,27.60
2022-11-29T14:52:21.753Z,25.50
2022-11-29T14:54:56.885Z,26.08
2022-11-29T14:57:56.909Z,25.85
2022-11-29T15:00:26.556Z,22.50
2022-11-29T15:02:58.849Z,27.00
2022-11-29T15:05:32.705Z,29.52
2022-11-29T15:08:08.248Z,28.38
2022-11-29T15:10:38.981Z,25.23
2022-11-29T15:13:08.729Z,27.15
2022-11-29T15:15:45.422Z,38.45
2022-11-29T15:18:25.865Z,21.73
2022-11-29T15:21:04.133Z,26.98
2022-11-29T15:23:41.012Z,29.80
2022-11-29T15:26:16.300Z,33.10
2022-11-29T15:28:44.622Z,32.75
2022-11-29T15:31:15.793Z,28.05
2022-11-29T15:33:46.459Z,30.02
2022-11-29T15:36:19.132Z,29.92
2022-11-29T15:38:49.260Z,28.90
2022-11-29T15:41:23.276Z,30.58
2022-11-29T15:43:54.509Z,27.25
2022-11-29T15:46:25.949Z,32.85
2022-11-29T15:48:55.893Z,27.88
2022-11-29T15:51:28.830Z,25.92
2022-11-29T15:54:12.312Z,29.25
2022-11-29T15:56:45.230Z,29.55
2022-11-29T15:59:32.444Z,23.88
2022-11-29T16:02:02.853Z,16.02
2022-11-29T16:04:32.911Z,28.52
2022-11-29T16:07:01.268Z,29.30
2022-11-29T16:09:33.991Z,28.63
2022-11-29T16:12:03.108Z,25.73
2022-11-29T16:14:31.821Z,30.10
2022-11-29T16:17:03.509Z,30.17
2022-11-29T16:19:34.964Z,26.77
2022-11-29T16:22:15.845Z,24.63
2022-11-29T16:24:53.067Z,21.00
2022-11-29T16:27:22.341Z,20.65
2022-11-29T16:29:52.470Z,20.35
2022-11-29T16:32:26.889Z,22.95
2022-11-29T16:34:57.245Z,26.55
2022-11-29T16:37:27.236Z,21.73
2022-11-29T16:39:59.172Z,24.05
2022-11-29T16:42:28.732Z,26.25
2022-11-29T16:45:30.044Z,22.98
2022-11-29T16:47:59.814Z,22.90
2022-11-29T16:50:30.201Z,25.58
2022-11-29T16:53:34.164Z,28.23
2022-11-29T16:58:30.469Z,20.10
2022-11-29T17:01:02.248Z,21.45
2022-11-29T17:03:30.606Z,19.35
2022-11-29T17:06:00.540Z,25.95
2022-11-29T17:08:28.877Z,22.30
2022-11-29T17:10:57.101Z,26.50
2022-11-29T17:13:25.375Z,24.65
2022-11-29T17:15:53.738Z,17.60
2022-11-29T17:18:22.409Z,22.05
2022-11-29T17:20:50.716Z,19.48
2022-11-29T17:23:20.747Z,21.42
2022-11-29T17:25:57.709Z,22.00
2022-11-29T17:28:26.082Z,23.33
2022-11-29T17:30:54.562Z,22.33
2022-11-29T17:33:23.163Z,22.52
2022-11-29T17:35:51.598Z,23.60
2022-11-29T17:38:21.232Z,64.97
2022-11-29T17:40:49.578Z,36.35
2022-11-29T17:43:17.844Z,28.30
2022-11-29T17:45:46.114Z,25.33
2022-11-29T17:48:14.395Z,22.17
2022-11-29T17:50:43.361Z,22.88
2022-11-29T17:53:11.692Z,26.95
2022-11-29T17:55:41.501Z,21.75
2022-11-29T17:58:09.864Z,28.08
2022-11-29T18:00:38.507Z,21.42
2022-11-29T18:03:06.932Z,22.73
2022-11-29T18:05:35.329Z,27.65
2022-11-29T18:08:04.387Z,24.45
2022-11-29T18:10:32.865Z,26.27
2022-11-29T18:13:02.649Z,30.58
2022-11-29T18:15:31.507Z,42.00
2022-11-29T18:17:59.931Z,31.08
2022-11-29T18:20:28.546Z,26.15
2022-11-29T18:22:57.670Z,27.92
2022-11-29T18:25:41.378Z,22.17
2022-11-29T18:28:11.662Z,28.80
2022-11-29T18:30:40.108Z,22.73
2022-11-29T18:33:09.651Z,28.70
2022-11-29T18:35:38.552Z,19.13
2022-11-29T18:38:15.131Z,19.05
2022-11-29T18:40:46.044Z,21.58
2022-11-29T18:43:17.350Z,23.40
2022-11-29T18:45:45.779Z,24.75
2022-11-29T18:48:14.568Z,26.48
2022-11-29T18:50:42.943Z,29.98
2022-11-29T18:53:11.534Z,34.30
2022-11-29T18:55:40.027Z,26.92
2022-11-29T18:58:09.330Z,33.60
2022-11-29T19:00:39.223Z,36.83
2022-11-29T19:03:07.659Z,25.55
2022-11-29T19:05:36.000Z,27.73
2022-11-29T19:08:04.450Z,24.65
2022-11-29T19:10:32.854Z,21.58
2022-11-29T19:13:01.105Z,33.00
2022-11-29T19:15:29.696Z,28.15
2022-11-29T19:17:59.514Z,21.08
2022-11-29T19:20:27.855Z,27.88
2022-11-29T19:23:00.503Z,28.25
2022-11-29T19:25:30.187Z,26.85
2022-11-29T19:27:58.633Z,28.08
2022-11-29T19:30:27.077Z,26.23
2022-11-29T19:32:55.521Z,29.63
2022-11-29T19:35:25.560Z,30.75
2022-11-29T19:38:03.254Z,27.17
2022-11-29T19:40:31.522Z,30.92
2022-11-29T19:43:00.130Z,27.85
2022-11-29T19:45:28.613Z,30.23
2022-11-29T19:47:56.885Z,29.10
2022-11-29T19:50:26.610Z,34.65
2022-11-29T19:52:55.106Z,38.33
2022-11-29T19:55:23.406Z,35.10
2022-11-29T19:57:51.855Z,30.77
2022-11-29T20:00:21.589Z,31.20
2022-11-29T20:02:50.023Z,35.00
2022-11-29T20:05:18.509Z,33.50
2022-11-29T20:07:49.985Z,28.27
2022-11-29T20:10:20.547Z,25.40
2022-11-29T20:12:48.758Z,24.15
2022-11-29T20:15:17.265Z,36.42
2022-11-29T20:17:45.555Z,35.58
2022-11-29T20:20:14.483Z,21.40
2022-11-29T20:22:42.881Z,23.77
2022-11-29T20:25:13.517Z,16.95
2022-11-29T20:27:41.816Z,27.45
2022-11-29T20:30:11.725Z,24.05
2022-11-29T20:32:40.269Z,42.00
2022-11-29T20:35:10.240Z,35.45
2022-11-29T20:37:53.585Z,26.27
2022-11-29T20:40:26.300Z,12.43
2022-11-29T20:43:01.115Z,22.38
2022-11-29T20:45:30.204Z,25.35
2022-11-29T20:48:02.452Z,30.83
2022-11-29T20:50:32.443Z,21.10
2022-11-29T20:53:21.979Z,18.80
2022-11-29T20:55:51.800Z,34.92
2022-11-29T20:58:20.025Z,19.63
2022-11-29T21:00:48.735Z,29.48
2022-11-29T21:03:17.694Z,32.67
2022-11-29T21:05:46.252Z,27.50
2022-11-29T21:08:15.245Z,30.92
2022-11-29T21:10:43.389Z,41.28
2022-11-29T21:13:14.029Z,29.77
2022-11-29T21:15:43.323Z,19.73
2022-11-29T21:18:19.682Z,33.83
2022-11-29T21:20:52.255Z,22.52
2022-11-29T21:23:24.677Z,22.63
2022-11-29T21:25:57.547Z,22.15
2022-11-29T21:28:31.599Z,23.65
2022-11-29T21:31:00.791Z,23.38
2022-11-29T21:33:29.729Z,24.27
2022-11-29T21:35:59.109Z,30.60
2022-11-29T21:38:28.161Z,16.33
2022-11-29T21:40:56.328Z,16.48
2022-11-29T21:43:50.176Z,22.00
2022-11-29T21:46:14.446Z,17.15
2022-11-29T21:48:42.783Z,12.57
2022-11-29T21:51:12.484Z,20.48
2022-11-29T21:53:41.252Z,22.35
2022-11-29T21:56:11.690Z,22.50
2022-11-29T21:58:40.746Z,16.58
2022-11-29T22:01:11.513Z,25.65
2022-11-29T22:03:41.849Z,22.73
2022-11-29T22:06:11.390Z,23.15
2022-11-29T22:08:40.491Z,24.27
2022-11-29T22:11:10.096Z,26.23
2022-11-29T22:13:58.946Z,21.55
2022-11-29T22:16:27.440Z,24.63
2022-11-29T22:18:57.256Z,16.98
2022-11-29T22:21:25.532Z,18.20
2022-11-29T22:23:54.092Z,17.40
2022-11-29T22:26:22.320Z,24.35
2022-11-29T22:28:50.773Z,19.20
2022-11-29T22:31:19.369Z,19.35
2022-11-29T22:33:47.742Z,12.07
2022-11-29T22:36:17.467Z,18.45
2022-11-29T22:38:45.852Z,7.25
2022-11-29T22:41:14.738Z,14.38
2022-11-29T22:43:43.725Z,21.60
2022-11-29T22:46:14.033Z,22.85
2022-11-29T22:48:43.876Z,11.20
2022-11-29T22:51:13.516Z,16.58
2022-11-29T22:53:45.619Z,25.88
2022-11-29T22:56:13.868Z,19.63
2022-11-29T22:58:42.121Z,14.25
2022-11-29T23:01:12.403Z,9.93
2022-11-29T23:03:42.236Z,17.77
2022-11-29T23:06:12.212Z,23.98
2022-11-29T23:08:42.827Z,32.60
2022-11-29T23:11:13.561Z,23.02
2022-11-29T23:13:42.801Z,21.45
2022-11-29T23:16:12.877Z,23.90
2022-11-29T23:18:42.410Z,24.30
2022-11-29T23:21:12.933Z,8.95
2022-11-29T23:23:42.768Z,16.50
2022-11-29T23:26:18.440Z,17.50
2022-11-29T23:28:46.633Z,20.27
2022-11-29T23:31:15.300Z,8.68
2022-11-29T23:33:44.292Z,17.23
2022-11-29T23:36:14.117Z,27.75
2022-11-29T23:38:44.221Z,23.80
2022-11-29T23:41:12.856Z,15.88
2022-11-29T23:43:42.055Z,17.05
2022-11-29T23:46:13.171Z,27.13
2022-11-29T23:48:41.544Z,23.58
2022-11-29T23:51:09.961Z,15.68
2022-11-29T23:53:38.420Z,20.98
2022-11-29T23:56:09.792Z,14.73
2022-11-29T23:58:38.189Z,23.17
